Startpagina
METAR-TAF:

METAR-TAF

Vliegvelden :

Fort-de-France, Martinique

breedte: 14-36N, lengte: 061-00W, hoogte: 5 m

Actueel weer

Dit bericht is 39 minuten geleden gemaakt, om 09:00 UTC
Weinig wind
Temperatuur 24°C
Vochtigheid 94%
Druk 1010 hPa
Zicht 10 km of meer

METAR: TFFF 220900Z AUTO 00000KT 9999 BKN018/// ///TCU 24/23 Q1010 TEMPO 2000 SHRA SCT015CB

Tijdstip: 05:39 (09:39 UTC)

Verwachting

Dit bericht is 4 uur en het 39 minuten geleden gemaakt, om 05:00 UTC
Verwachting geldig van 22 om 06 UTC tot 23 om 06 UTC
Wind 8 kt uit het oosten
Zicht 10 km of meer
Verspreide wolken op 2500 ft
Tijdelijke
van 22 om 06 UTC tot 23 om 06 UTC
Zicht: 4000 m
Verspreide wolken op 1800 ft, Stapelwolken.
regenbuien
Kans 30% :
Tijdelijke
van 22 om 06 UTC tot 22 om 20 UTC
Zicht: 2000 m
Verspreide wolken op 1500 ft, Cumulonimbus.
regenbuien

TAF: TFFF 220500Z 2206/2306 10008KT 9999 SCT025 TEMPO 2206/2306 4000 SHRA SCT018TCU PROB30 TEMPO 2206/2220 2000 SHRA SCT015CB

Waarnemingen en weersverwachtingen van meer dan 4000 vliegvelden (METAR en TAF).

De beschikbare stations zijn de gele en rode punten op de kaart.

Ga met uw muis naar het station om de naam te zien.

Klik dan om waarnemingen en weersverwachtingen te zien.

kaart wijzigen: klik op de groene knoppen met een zwart kruis om in te zoomen, op de groene knop met een streepje om uit te zoomen of op de groene pijlen voor aangrenzende kaarten.


METAR-TAF: